Time;durP1;ratioP1;P1;durP2;ratioP2;P2;SDS_P1;SDS_P2;PMS_P1;PMS_P2;Temp;Humidity;BMP_temperature;BMP_pressure;BME280_temperature;BME280_humidity;BME280_pressure;Samples;Min_cycle;Max_cycle;Signal;HPM_P1;HPM_P2
2022/04/23 00:01:42;;;;;;;38.53;21.75;;;;;;;6.17;100.00;97209.75;1743074;82;21438;-57
2022/04/23 00:04:11;;;;;;;38.55;23.95;;;;;;;6.20;100.00;97207.05;1744829;82;21028;-57
2022/04/23 00:06:38;;;;;;;36.68;20.25;;;;;;;6.16;100.00;97201.95;1739522;82;21007;-57
2022/04/23 00:09:04;;;;;;;38.20;20.57;;;;;;;6.09;100.00;97208.14;1743200;81;20992;-57
2022/04/23 00:11:30;;;;;;;37.20;21.68;;;;;;;6.11;100.00;97198.71;1761029;81;21004;-57
2022/04/23 00:13:56;;;;;;;37.30;22.20;;;;;;;6.13;100.00;97197.90;1736324;81;21688;-57
2022/04/23 00:16:23;;;;;;;38.65;23.27;;;;;;;6.18;100.00;97205.97;1735177;82;20877;-57
2022/04/23 00:18:49;;;;;;;40.80;21.33;;;;;;;6.19;100.00;97202.20;1753966;80;21455;-57
2022/04/23 00:21:15;;;;;;;39.92;22.37;;;;;;;6.21;99.36;97202.73;1761138;81;20940;-57
2022/04/23 00:23:40;;;;;;;38.15;22.07;;;;;;;6.15;100.00;97201.66;1741384;81;20913;-57
2022/04/23 00:26:06;;;;;;;41.77;26.00;;;;;;;6.12;100.00;97195.48;1748308;81;20948;-57
2022/04/23 00:28:32;;;;;;;40.98;24.50;;;;;;;6.15;100.00;97195.77;1727626;81;20873;-57
2022/04/23 00:30:58;;;;;;;58.45;44.15;;;;;;;6.18;100.00;97197.09;1742163;82;20964;-57
2022/04/23 00:33:24;;;;;;;39.18;23.35;;;;;;;6.12;100.00;97192.25;1744365;82;20878;-57
2022/04/23 00:35:50;;;;;;;38.70;21.10;;;;;;;6.16;100.00;97195.23;1744469;82;21055;-57
2022/04/23 00:38:16;;;;;;;33.73;20.20;;;;;;;6.12;100.00;97188.76;1744380;82;21595;-57
2022/04/23 00:40:43;;;;;;;41.98;23.42;;;;;;;6.06;100.00;97191.17;1743039;82;20989;-57
2022/04/23 00:43:28;;;;;;;36.25;20.92;;;;;;;6.08;100.00;97188.51;1741500;80;21005;-57
2022/04/23 00:45:55;;;;;;;40.05;22.17;;;;;;;6.10;100.00;97188.23;1747714;81;21028;-57
2022/04/23 00:48:21;;;;;;;41.65;22.58;;;;;;;5.99;100.00;97185.29;1744264;82;21124;-57
2022/04/23 00:50:50;;;;;;;36.70;22.58;;;;;;;5.93;100.00;97188.52;1746512;81;21578;-56
2022/04/23 00:53:16;;;;;;;41.77;23.77;;;;;;;6.00;100.00;97189.59;1747984;81;27477;-57
2022/04/23 00:55:43;;;;;;;33.70;19.62;;;;;;;6.03;100.00;97185.81;1727486;81;20948;-57
2022/04/23 00:58:09;;;;;;;36.05;20.50;;;;;;;6.07;100.00;97184.75;1749714;81;21012;-57
2022/04/23 01:00:37;;;;;;;37.53;21.00;;;;;;;6.08;100.00;97185.81;1737629;82;20886;-57
2022/04/23 01:03:02;;;;;;;37.08;21.50;;;;;;;6.08;100.00;97187.70;1744707;82;21475;-57
2022/04/23 01:05:29;;;;;;;39.13;21.93;;;;;;;6.11;100.00;97187.95;1736368;82;20857;-57
2022/04/23 01:07:55;;;;;;;39.70;23.52;;;;;;;5.94;100.00;97181.52;1740615;81;21064;-57
2022/04/23 01:10:21;;;;;;;34.38;21.27;;;;;;;6.02;100.00;97182.86;1740544;80;20992;-57
2022/04/23 01:12:47;;;;;;;38.70;23.65;;;;;;;6.03;100.00;97183.13;1743367;82;20969;-57
2022/04/23 01:15:16;;;;;;;40.48;23.85;;;;;;;5.98;100.00;97187.69;1744498;82;21542;-57
2022/04/23 01:17:43;;;;;;;44.67;24.98;;;;;;;6.01;100.00;97192.00;1754976;81;21480;-57
2022/04/23 01:20:13;;;;;;;38.13;23.80;;;;;;;5.99;100.00;97192.02;1724550;82;21012;-57
2022/04/23 01:22:44;;;;;;;43.45;26.23;;;;;;;5.94;100.00;97186.89;1742455;82;21013;-57
2022/04/23 01:25:12;;;;;;;40.95;24.02;;;;;;;5.98;100.00;97189.03;1752844;81;21468;-57
2022/04/23 01:27:39;;;;;;;33.88;20.62;;;;;;;6.00;100.00;97185.56;1733182;81;22186;-57
2022/04/23 01:30:07;;;;;;;39.30;22.27;;;;;;;6.00;100.00;97185.02;1753702;80;20970;-57
2022/04/23 01:32:34;;;;;;;37.13;21.87;;;;;;;5.96;99.64;97192.00;1746323;81;21561;-57
2022/04/23 01:35:00;;;;;;;41.45;23.30;;;;;;;5.98;100.00;97189.84;1746151;80;20991;-57
2022/04/23 01:37:26;;;;;;;42.33;22.75;;;;;;;5.98;100.00;97186.34;1731188;81;21021;-57
2022/04/23 01:39:51;;;;;;;39.95;21.60;;;;;;;5.97;100.00;97185.53;1755472;80;21530;-57
2022/04/23 01:42:19;;;;;;;40.88;23.22;;;;;;;5.90;100.00;97184.48;1744831;82;20925;-57
2022/04/23 01:44:48;;;;;;;34.63;20.10;;;;;;;5.93;100.00;97180.45;1756104;80;22034;-57
2022/04/23 01:47:14;;;;;;;32.67;19.62;;;;;;;5.96;100.00;97179.09;1756664;81;21050;-57
2022/04/23 01:49:41;;;;;;;41.28;21.65;;;;;;;5.88;100.00;97179.86;1751121;80;20996;-57
2022/04/23 01:52:07;;;;;;;35.28;21.35;;;;;;;5.85;100.00;97180.41;1724660;82;21544;-57
2022/04/23 01:54:34;;;;;;;36.73;19.32;;;;;;;5.91;100.00;97178.57;1729144;81;21587;-57
2022/04/23 01:57:00;;;;;;;40.35;21.85;;;;;;;5.89;100.00;97180.13;1736933;82;20981;-57
2022/04/23 01:59:26;;;;;;;40.45;23.92;;;;;;;5.90;100.00;97185.83;1752509;80;20877;-57
2022/04/23 02:01:52;;;;;;;37.55;21.93;;;;;;;5.92;100.00;97190.39;1724705;82;20977;-57
2022/04/23 02:04:18;;;;;;;36.55;23.00;;;;;;;5.90;100.00;97189.87;1724861;82;21460;-57
2022/04/23 02:06:44;;;;;;;36.42;22.58;;;;;;;5.88;100.00;97187.13;1733044;82;20932;-57
2022/04/23 02:09:10;;;;;;;36.15;24.75;;;;;;;5.84;100.00;97188.75;1745334;81;21059;-57
2022/04/23 02:11:36;;;;;;;35.60;21.15;;;;;;;5.84;100.00;97192.25;1744852;81;20845;-57
2022/04/23 02:14:02;;;;;;;35.90;21.10;;;;;;;5.83;100.00;97195.20;1738067;82;20909;-57
2022/04/23 02:16:29;;;;;;;36.17;20.55;;;;;;;5.81;100.00;97198.17;1728588;82;22357;-57
2022/04/23 02:18:57;;;;;;;34.43;19.75;;;;;;;5.86;100.00;97197.34;1724397;82;21469;-57
2022/04/23 02:21:26;;;;;;;38.05;20.05;;;;;;;5.90;99.62;97198.44;1744259;82;21052;-57
2022/04/23 02:23:55;;;;;;;38.35;22.65;;;;;;;5.85;100.00;97195.74;1755324;80;20976;-57
2022/04/23 02:26:21;;;;;;;33.40;20.27;;;;;;;5.84;100.00;97192.25;1748664;81;21068;-57
2022/04/23 02:28:48;;;;;;;36.45;21.20;;;;;;;5.86;100.00;97200.04;1736145;82;21560;-57
2022/04/23 02:31:14;;;;;;;37.15;20.60;;;;;;;5.90;100.00;97203.82;1744272;82;20973;-57
2022/04/23 02:33:40;;;;;;;32.58;19.75;;;;;;;5.88;99.99;97204.06;1744678;82;21477;-57
2022/04/23 02:36:07;;;;;;;36.25;21.35;;;;;;;5.92;99.88;97201.69;1750242;81;20873;-57
2022/04/23 02:38:34;;;;;;;33.33;20.60;;;;;;;5.99;99.64;97207.61;1707454;82;21024;-57
2022/04/23 02:41:00;;;;;;;34.27;19.87;;;;;;;6.02;99.62;97209.75;1751059;81;21552;-57
2022/04/23 02:43:26;;;;;;;41.55;23.45;;;;;;;6.03;98.87;97211.90;1729310;81;21064;-57
2022/04/23 02:45:53;;;;;;;39.78;21.45;;;;;;;6.02;99.18;97215.67;1722849;81;21813;-56
2022/04/23 02:48:18;;;;;;;38.75;23.27;;;;;;;6.02;99.05;97216.47;1727153;81;21008;-57
2022/04/23 02:50:45;;;;;;;34.30;20.05;;;;;;;5.96;99.04;97216.20;1755136;81;21606;-56
2022/04/23 02:53:11;;;;;;;40.08;22.00;;;;;;;5.99;98.99;97223.75;1761972;80;21572;-57
2022/04/23 02:55:38;;;;;;;36.40;21.05;;;;;;;5.98;99.26;97232.06;1736667;81;20904;-57
2022/04/23 02:58:11;;;;;;;36.38;21.97;;;;;;;6.03;98.90;97230.73;1723486;82;21017;-57
2022/04/23 03:00:38;;;;;;;33.83;20.57;;;;;;;5.98;98.72;97223.99;1743369;82;21002;-57
2022/04/23 03:03:05;;;;;;;33.08;21.35;;;;;;;5.94;99.11;97225.89;1744622;80;21005;-57
2022/04/23 03:05:31;;;;;;;46.00;28.07;;;;;;;5.97;99.08;97229.91;1744557;82;22238;-57
2022/04/23 03:08:01;;;;;;;39.85;23.70;;;;;;;6.00;98.98;97225.36;1734580;82;21489;-57
2022/04/23 03:10:27;;;;;;;36.60;22.07;;;;;;;5.99;98.92;97233.70;1744472;82;20969;-57
2022/04/23 03:12:56;;;;;;;36.28;21.50;;;;;;;5.98;98.81;97232.86;1741972;82;21465;-57
2022/04/23 03:15:21;;;;;;;37.25;23.12;;;;;;;6.00;98.87;97240.69;1748658;81;20977;-57
2022/04/23 03:17:47;;;;;;;39.18;23.57;;;;;;;5.96;99.11;97239.05;1730504;81;21692;-56
2022/04/23 03:20:13;;;;;;;42.70;24.15;;;;;;;5.98;99.09;97242.81;1744348;82;20944;-56
2022/04/23 03:22:39;;;;;;;38.28;23.90;;;;;;;5.91;99.05;97246.60;1744723;82;21008;-57
2022/04/23 03:25:07;;;;;;;47.75;28.65;;;;;;;5.86;98.95;97247.09;1735478;82;21020;-57
2022/04/23 03:27:33;;;;;;;39.98;25.48;;;;;;;5.90;99.14;97247.68;1741704;82;21009;-56
2022/04/23 03:29:59;;;;;;;41.73;21.90;;;;;;;5.94;98.80;97254.12;1738877;82;21562;-57
2022/04/23 03:32:26;;;;;;;43.15;26.60;;;;;;;5.95;98.75;97248.20;1732441;81;21000;-57
2022/04/23 03:34:52;;;;;;;41.02;23.85;;;;;;;5.99;99.00;97251.18;1748143;80;21075;-56
2022/04/23 03:37:18;;;;;;;37.40;23.57;;;;;;;5.91;98.66;97243.91;1739776;82;21373;-57
2022/04/23 03:39:44;;;;;;;41.33;24.67;;;;;;;5.83;99.02;97252.48;1744503;82;21079;-56
2022/04/23 03:42:11;;;;;;;36.08;23.77;;;;;;;5.84;98.94;97252.74;1744832;82;21010;-57
2022/04/23 03:44:37;;;;;;;34.23;21.50;;;;;;;5.90;98.62;97250.88;1748885;81;21012;-57
2022/04/23 03:47:04;;;;;;;36.00;22.15;;;;;;;5.84;98.71;97252.74;1738231;81;20976;-57
2022/04/23 03:49:30;;;;;;;39.88;24.00;;;;;;;5.76;98.81;97248.44;1728569;82;21489;-57
2022/04/23 03:51:57;;;;;;;35.25;23.42;;;;;;;5.84;98.62;97260.81;1755142;81;20881;-57
2022/04/23 03:54:24;;;;;;;32.88;21.95;;;;;;;5.86;98.46;97251.93;1733865;81;22275;-57
2022/04/23 03:56:50;;;;;;;34.98;22.58;;;;;;;5.89;98.27;97255.95;1744661;82;22022;-57
2022/04/23 03:59:20;;;;;;;36.68;23.42;;;;;;;5.86;98.79;97250.59;1746620;81;20890;-57
2022/04/23 04:01:44;;;;;;;32.15;20.23;;;;;;;5.86;98.56;97249.24;1753004;81;20981;-57
2022/04/23 04:04:09;;;;;;;32.63;21.57;;;;;;;5.81;98.56;97250.59;1744637;80;20968;-57
2022/04/23 04:06:35;;;;;;;34.63;21.48;;;;;;;5.79;98.61;97252.72;1752151;81;21423;-57
2022/04/23 04:09:01;;;;;;;33.55;20.65;;;;;;;5.84;98.41;97259.47;1736120;81;21480;-57
2022/04/23 04:12:00;;;;;;;37.13;22.32;;;;;;;5.86;98.24;97256.50;1744494;82;20941;-57
2022/04/23 04:13:55;;;;;;;35.23;21.65;;;;;;;5.85;98.49;97258.92;1754958;80;20996;-57
2022/04/23 04:16:22;;;;;;;38.92;22.00;;;;;;;5.90;98.08;97261.63;1748785;81;20944;-57
2022/04/23 04:18:47;;;;;;;31.93;21.33;;;;;;;5.83;98.33;97259.20;1724602;82;21530;-57
2022/04/23 04:21:14;;;;;;;33.48;20.02;;;;;;;5.79;98.08;97268.86;1758954;81;21792;-57
2022/04/23 04:23:40;;;;;;;32.80;20.70;;;;;;;5.81;97.94;97269.42;1752500;81;21053;-57
2022/04/23 04:26:07;;;;;;;31.40;20.17;;;;;;;5.84;97.83;97271.56;1740549;81;20932;-57
2022/04/23 04:28:34;;;;;;;30.82;20.27;;;;;;;5.76;97.34;97265.91;1743465;81;20988;-57
2022/04/23 04:33:44;;;;;;;29.95;19.45;;;;;;;5.79;96.98;97273.42;1740616;81;21012;-57
2022/04/23 04:36:10;;;;;;;28.92;18.67;;;;;;;5.80;96.79;97275.84;1742503;82;21072;-57
2022/04/23 04:38:36;;;;;;;29.75;19.48;;;;;;;5.89;96.64;97268.86;1744621;82;20857;-57
2022/04/23 04:41:04;;;;;;;31.93;19.75;;;;;;;5.92;96.66;97269.72;1744511;82;20906;-56
2022/04/23 04:43:31;;;;;;;28.87;19.25;;;;;;;5.98;96.28;97270.52;1752945;80;22047;-57
2022/04/23 04:45:57;;;;;;;30.92;18.62;;;;;;;6.05;96.18;97276.98;1735221;81;21031;-57
2022/04/23 04:48:23;;;;;;;26.87;16.07;;;;;;;6.10;95.81;97277.00;1744508;82;21100;-57
2022/04/23 04:50:49;;;;;;;26.82;16.90;;;;;;;6.13;95.79;97283.17;1744385;82;20929;-57
2022/04/23 04:53:15;;;;;;;27.32;17.48;;;;;;;6.06;95.24;97286.12;1744691;82;20921;-57
2022/04/23 04:55:41;;;;;;;25.20;15.83;;;;;;;6.10;95.25;97284.53;1744618;82;21543;-57
2022/04/23 04:58:07;;;;;;;25.85;17.17;;;;;;;6.15;95.00;97281.84;1750135;80;20960;-57
2022/04/23 05:00:33;;;;;;;24.57;16.12;;;;;;;6.21;94.59;97287.48;1761093;81;20889;-57
2022/04/23 05:02:59;;;;;;;30.05;19.25;;;;;;;6.27;94.40;97284.26;1726502;81;20845;-57
2022/04/23 05:05:25;;;;;;;25.85;17.50;;;;;;;6.47;94.50;97287.47;1744578;82;21544;-57
2022/04/23 05:07:51;;;;;;;26.50;18.05;;;;;;;6.56;93.58;97283.15;1748042;81;21525;-57
2022/04/23 05:10:17;;;;;;;23.12;16.62;;;;;;;6.71;93.76;97283.67;1741589;80;21020;-57
2022/04/23 05:12:43;;;;;;;26.05;17.52;;;;;;;6.77;93.04;97287.97;1742851;82;20889;-57
2022/04/23 05:15:11;;;;;;;22.75;15.18;;;;;;;6.90;93.33;97284.69;1744466;82;21006;-56
2022/04/23 05:17:39;;;;;;;24.65;16.42;;;;;;;6.90;91.66;97290.08;1732537;82;21457;-57
2022/04/23 05:20:07;;;;;;;25.25;16.45;;;;;;;6.92;91.19;97293.84;1741447;81;21176;-57
2022/04/23 05:22:33;;;;;;;26.50;17.10;;;;;;;6.99;90.82;97291.12;1761868;81;21457;-57
2022/04/23 05:24:59;;;;;;;21.57;14.90;;;;;;;7.14;91.29;97298.91;1761548;80;20857;-57
2022/04/23 05:27:27;;;;;;;23.40;16.07;;;;;;;7.17;90.83;97293.77;1733294;81;20897;-57
2022/04/23 05:29:53;;;;;;;20.32;13.83;;;;;;;7.23;90.23;97300.75;1747816;80;21032;-57
2022/04/23 05:32:19;;;;;;;21.35;15.15;;;;;;;7.23;89.08;97304.80;1724374;82;21866;-56
2022/04/23 05:34:45;;;;;;;18.70;13.70;;;;;;;7.34;89.93;97306.91;1734737;81;20882;-57
2022/04/23 05:37:11;;;;;;;21.10;14.30;;;;;;;7.44;89.26;97308.78;1744475;82;20944;-57
2022/04/23 05:39:37;;;;;;;20.12;14.35;;;;;;;7.44;88.43;97302.84;1744379;82;20940;-56
2022/04/23 05:42:04;;;;;;;29.07;17.77;;;;;;;7.56;88.74;97304.66;1755603;81;20853;-57
2022/04/23 05:44:30;;;;;;;34.43;21.17;;;;;;;7.67;88.81;97312.14;1732978;81;22334;-57
2022/04/23 05:46:56;;;;;;;18.57;13.28;;;;;;;7.78;88.96;97308.88;1744380;82;20929;-57
2022/04/23 05:49:22;;;;;;;20.72;13.62;;;;;;;7.87;88.61;97305.85;1744359;82;20877;-57
2022/04/23 05:51:48;;;;;;;21.27;14.45;;;;;;;7.89;87.97;97308.52;1753656;81;20920;-57
2022/04/23 05:54:14;;;;;;;17.35;11.90;;;;;;;7.83;86.00;97306.12;1750194;81;21047;-57
2022/04/23 05:56:40;;;;;;;16.70;11.75;;;;;;;7.70;84.97;97304.06;1753382;81;21534;-57
2022/04/23 05:59:06;;;;;;;14.80;10.48;;;;;;;7.78;85.51;97303.48;1744469;82;20952;-57
2022/04/23 06:01:32;;;;;;;14.98;10.85;;;;;;;7.98;86.80;97308.73;1738842;81;20911;-57
2022/04/23 06:03:58;;;;;;;16.23;11.18;;;;;;;7.93;86.50;97312.26;1743098;80;20893;-57
2022/04/23 06:06:24;;;;;;;17.27;12.28;;;;;;;7.98;86.56;97318.73;1744475;82;20834;-57
2022/04/23 06:08:50;;;;;;;15.28;11.20;;;;;;;7.86;85.67;97315.00;1744304;82;21822;-57
2022/04/23 06:11:15;;;;;;;16.62;9.90;;;;;;;7.87;86.02;97319.34;1760752;81;20948;-57
2022/04/23 06:13:41;;;;;;;15.13;10.35;;;;;;;7.81;86.30;97319.09;1741104;81;20893;-56
2022/04/23 06:16:07;;;;;;;14.45;9.53;;;;;;;7.76;86.42;97317.22;1742226;82;21792;-57
2022/04/23 06:18:33;;;;;;;13.30;9.28;;;;;;;7.67;84.21;97315.39;1744184;82;20985;-57
2022/04/23 06:20:59;;;;;;;12.13;8.65;;;;;;;7.78;85.09;97312.92;1744773;82;22332;-57
2022/04/23 06:23:25;;;;;;;12.75;9.40;;;;;;;7.80;84.40;97316.94;1752164;80;20904;-57
2022/04/23 06:25:52;;;;;;;10.43;7.50;;;;;;;7.92;85.99;97313.89;1748476;81;20897;-57
2022/04/23 06:28:18;;;;;;;80.03;37.75;;;;;;;7.92;82.80;97314.70;1744571;82;21005;-57
2022/04/23 06:30:44;;;;;;;34.60;19.25;;;;;;;8.27;84.43;97310.69;1744337;82;21019;-57
2022/04/23 06:33:10;;;;;;;19.87;12.05;;;;;;;8.47;83.78;97315.43;1744676;82;21417;-56
2022/04/23 06:35:35;;;;;;;15.00;10.40;;;;;;;8.70;83.92;97318.45;1744489;82;20948;-56
2022/04/23 06:38:01;;;;;;;10.45;8.40;;;;;;;8.67;81.64;97319.84;1749427;80;20888;-57
2022/04/23 06:40:27;;;;;;;20.60;13.45;;;;;;;8.82;81.10;97322.14;1739365;81;20865;-56
2022/04/23 06:42:53;;;;;;;14.78;9.95;;;;;;;8.94;82.49;97319.84;1748275;81;20987;-57
2022/04/23 06:45:19;;;;;;;32.45;25.52;;;;;;;8.94;79.51;97321.20;1741358;80;21805;-57
2022/04/23 06:47:45;;;;;;;15.80;11.12;;;;;;;8.97;82.05;97321.97;1725768;82;20940;-56
2022/04/23 06:50:11;;;;;;;14.33;9.18;;;;;;;8.89;81.49;97321.27;1728054;81;20892;-57
2022/04/23 06:52:37;;;;;;;12.98;9.05;;;;;;;8.88;79.23;97319.09;1755265;81;21012;-57
2022/04/23 06:55:05;;;;;;;16.85;9.50;;;;;;;8.88;79.23;97319.09;1752302;81;21629;-56
2022/04/23 06:57:31;;;;;;;12.65;9.45;;;;;;;8.92;80.31;97307.18;1759482;81;21888;-57
2022/04/23 07:00:01;;;;;;;12.53;9.40;;;;;;;8.92;80.31;97307.18;1727268;82;20865;-56
2022/04/23 07:02:27;;;;;;;10.68;7.55;;;;;;;9.01;80.36;97308.97;1704205;81;21437;-57
2022/04/23 07:04:53;;;;;;;10.30;7.72;;;;;;;9.43;80.17;97312.82;1746630;80;21528;-57
2022/04/23 07:07:19;;;;;;;9.05;7.95;;;;;;;9.48;76.02;97314.64;1742460;81;21372;-56
2022/04/23 07:09:45;;;;;;;11.50;7.58;;;;;;;10.08;72.27;97321.16;1747824;80;22358;-57
2022/04/23 07:12:11;;;;;;;10.10;7.42;;;;;;;10.59;74.86;97313.59;1743122;81;20968;-57
2022/04/23 07:14:38;;;;;;;11.40;7.40;;;;;;;10.53;68.25;97324.83;1750906;79;21426;-57
2022/04/23 07:17:04;;;;;;;14.80;10.18;;;;;;;11.55;73.19;97318.35;1754222;81;21004;-57
2022/04/23 07:19:30;;;;;;;11.40;8.48;;;;;;;11.28;71.01;97317.80;1733027;81;21064;-57
2022/04/23 07:21:56;;;;;;;8.23;6.50;;;;;;;11.99;73.70;97308.76;1733540;81;21652;-57
2022/04/23 07:24:22;;;;;;;19.02;8.05;;;;;;;11.73;73.56;97307.92;1730760;82;20892;-57
2022/04/23 07:26:48;;;;;;;8.53;6.60;;;;;;;11.60;70.72;97310.09;1727759;82;21043;-57
2022/04/23 07:29:14;;;;;;;12.00;7.05;;;;;;;12.06;70.21;97314.02;1739854;82;20874;-57
2022/04/23 07:31:40;;;;;;;7.80;6.08;;;;;;;12.10;71.06;97308.77;1744286;82;20980;-57
2022/04/23 07:39:36;;;;;;;10.93;7.17;;;;;;;13.51;65.75;97290.52;1744366;82;21008;-57
2022/04/23 07:42:05;;;;;;;6.90;4.90;;;;;;;13.88;61.98;97299.23;1744525;82;21000;-57
2022/04/23 07:44:31;;;;;;;5.78;5.10;;;;;;;14.38;58.88;97293.56;1744524;82;21075;-57
2022/04/23 07:46:57;;;;;;;6.30;5.30;;;;;;;15.15;59.94;97289.66;1753835;81;21586;-57
2022/04/23 07:49:23;;;;;;;5.33;4.65;;;;;;;15.14;50.56;97297.05;1752927;80;20928;-57
2022/04/23 07:51:50;;;;;;;6.28;4.97;;;;;;;16.06;55.71;97294.51;1738079;81;21047;-57
2022/04/23 07:54:16;;;;;;;5.10;4.35;;;;;;;16.42;52.72;97293.66;1738978;81;21020;-57
2022/04/23 07:56:43;;;;;;;7.62;4.42;;;;;;;16.41;53.47;97288.77;1748284;81;37494;-57
2022/04/23 07:59:10;;;;;;;5.58;4.37;;;;;;;16.46;47.67;97296.75;1735634;81;21471;-57
2022/04/23 08:01:35;;;;;;;6.30;5.47;;;;;;;15.38;49.42;97294.29;1743295;81;21052;-57
2022/04/23 08:04:03;;;;;;;7.40;5.60;;;;;;;14.33;50.37;97295.08;1742194;80;20972;-57
2022/04/23 08:06:30;;;;;;;5.83;5.25;;;;;;;14.72;50.12;97297.41;1747815;81;21023;-57
2022/04/23 08:08:56;;;;;;;5.85;5.22;;;;;;;14.95;51.64;97291.16;1750404;81;20988;-57
2022/04/23 08:11:22;;;;;;;6.85;4.97;;;;;;;16.30;50.62;97299.28;1744602;82;21920;-57
2022/04/23 08:13:50;;;;;;;5.92;4.00;;;;;;;17.00;49.51;97291.81;1744584;82;20889;-57
2022/04/23 08:16:16;;;;;;;7.78;5.05;;;;;;;16.06;49.68;97297.24;1744611;82;21072;-57
2022/04/23 08:18:42;;;;;;;7.55;5.25;;;;;;;16.21;50.02;97295.82;1744730;82;21066;-57
2022/04/23 08:21:07;;;;;;;6.47;4.67;;;;;;;15.61;49.38;97290.77;1749957;81;20921;-57
2022/04/23 08:23:33;;;;;;;5.72;4.90;;;;;;;14.76;50.32;97291.53;1734540;82;22370;-57
2022/04/23 08:26:02;;;;;;;8.50;5.72;;;;;;;13.82;52.19;97291.20;1746864;81;20885;-57
2022/04/23 08:31:12;;;;;;;5.65;4.80;;;;;;;12.43;54.54;97293.86;1744667;82;21182;-57
2022/04/23 08:36:23;;;;;;;4.95;4.22;;;;;;;12.58;55.49;97282.38;1744396;82;21485;-56
2022/04/23 08:38:49;;;;;;;15.10;5.78;;;;;;;12.41;54.47;97285.22;1744327;82;20992;-57
2022/04/23 08:41:15;;;;;;;6.65;5.90;;;;;;;12.02;56.61;97283.14;1744559;82;20981;-57
2022/04/23 08:43:41;;;;;;;8.10;5.72;;;;;;;12.22;55.50;97279.70;1739669;81;20948;-57
2022/04/23 08:46:08;;;;;;;8.38;5.75;;;;;;;12.28;56.48;97278.47;1741093;82;21594;-57
2022/04/23 08:48:38;;;;;;;7.62;6.17;;;;;;;12.83;55.55;97274.13;1746338;80;21475;-57
2022/04/23 08:51:12;;;;;;;7.05;6.15;;;;;;;13.35;51.80;97273.02;1727979;81;21050;-57
2022/04/23 08:53:41;;;;;;;6.83;6.15;;;;;;;14.94;52.07;97269.90;1736289;81;21008;-58
2022/04/23 08:56:08;;;;;;;5.80;5.20;;;;;;;16.89;46.99;97266.83;1758039;80;21000;-57
2022/04/23 08:58:34;;;;;;;6.83;5.55;;;;;;;18.33;45.29;97272.37;1772460;80;20952;-57
2022/04/23 09:01:00;;;;;;;9.15;5.65;;;;;;;18.02;41.29;97271.08;1748261;80;21440;-57
2022/04/23 09:03:26;;;;;;;6.95;5.40;;;;;;;18.64;44.29;97271.69;1753327;80;20828;-57
2022/04/23 09:05:52;;;;;;;7.97;5.30;;;;;;;19.74;37.85;97260.02;1761714;80;20889;-58
2022/04/23 09:08:18;;;;;;;6.30;5.03;;;;;;;21.16;40.09;97265.45;1788083;80;21001;-58
2022/04/23 09:10:54;;;;;;;5.62;4.40;;;;;;;21.19;41.07;97261.95;1754632;80;20895;-57
2022/04/23 09:13:31;;;;;;;6.55;5.37;;;;;;;19.62;36.26;97261.48;1740987;81;21711;-58
2022/04/23 09:24:48;;;;;;;6.70;5.17;;;;;;;15.19;45.97;97264.67;1757932;80;21415;-57
2022/04/23 09:27:14;;;;;;;11.05;6.10;;;;;;;13.98;47.04;97268.39;1788921;79;21602;-57
2022/04/23 09:29:42;;;;;;;10.05;8.23;;;;;;;13.53;49.01;97268.66;1776556;80;21065;-57
2022/04/23 09:32:15;;;;;;;7.62;6.25;;;;;;;13.62;48.92;97265.95;1771826;80;21450;-57
2022/04/23 09:34:41;;;;;;;9.93;5.42;;;;;;;16.20;42.54;97264.16;1760559;80;21421;-57
2022/04/23 09:37:08;;;;;;;7.45;5.42;;;;;;;18.59;41.01;97257.64;1768094;80;21025;-57
2022/04/23 09:39:35;;;;;;;14.90;7.30;;;;;;;20.05;38.39;97260.50;1762135;80;22033;-57
2022/04/23 09:42:15;;;;;;;5.55;4.30;;;;;;;21.20;37.67;97256.09;1751543;80;21470;-58
2022/04/23 09:44:42;;;;;;;4.17;3.72;;;;;;;22.60;32.99;97250.66;1741137;81;21077;-57
2022/04/23 09:47:08;;;;;;;4.00;3.60;;;;;;;22.51;31.19;97247.61;1741375;81;21070;-57
2022/04/23 09:49:38;;;;;;;4.78;3.95;;;;;;;23.36;32.38;97245.53;1741073;81;20891;-58
2022/04/23 09:52:07;;;;;;;4.35;3.95;;;;;;;25.33;28.89;97248.68;1741371;81;21461;-58
2022/04/23 09:54:33;;;;;;;;;;;;;;;24.42;28.32;97245.45;1745075;81;21041;-58
2022/04/23 09:57:00;;;;;;;4.60;4.10;;;;;;;25.22;25.15;97249.47;1747832;81;20150;-58
2022/04/23 09:59:28;;;;;;;4.25;3.80;;;;;;;26.14;28.86;97239.48;1761770;79;21083;-57
2022/04/23 10:01:54;;;;;;;6.95;3.33;;;;;;;26.04;24.90;97241.70;1745569;81;21024;-58
2022/04/23 10:04:24;;;;;;;4.30;3.37;;;;;;;25.57;24.18;97249.28;1752509;80;22056;-58
2022/04/23 10:06:51;;;;;;;9.28;7.92;;;;;;;25.68;27.70;97244.52;1752360;81;21068;-58
2022/04/23 10:09:22;;;;;;;4.60;3.67;;;;;;;25.58;28.72;97241.95;1762532;79;20995;-58
2022/04/23 10:11:50;;;;;;;15.50;3.20;;;;;;;22.88;30.57;97240.53;1745588;81;21000;-57
2022/04/23 10:14:22;;;;;;;7.17;6.42;;;;;;;20.51;32.18;97249.13;1754279;81;21481;-58
2022/04/23 10:16:49;;;;;;;4.72;4.20;;;;;;;19.67;33.91;97244.16;1740979;80;21436;-57
2022/04/23 10:19:15;;;;;;;4.90;4.17;;;;;;;19.19;35.22;97248.05;1749149;80;20993;-58
2022/04/23 10:22:14;;;;;;;7.90;4.08;;;;;;;17.98;36.01;97252.95;1752247;81;21004;-57
2022/04/23 10:24:47;;;;;;;;;;;;;;;17.63;37.13;97257.54;1748113;81;20988;-58
2022/04/23 10:27:14;;;;;;;7.08;4.90;;;;;;;16.51;38.23;97261.00;1750306;81;20162;-57
2022/04/23 10:29:40;;;;;;;9.15;7.33;;;;;;;15.76;39.95;97263.69;1756839;81;21548;-57
2022/04/23 10:32:17;;;;;;;5.47;4.60;;;;;;;15.85;40.07;97264.20;1759701;81;20951;-58
2022/04/23 10:34:43;;;;;;;8.80;4.47;;;;;;;15.70;41.18;97260.11;1738212;81;21059;-57
2022/04/23 10:37:22;;;;;;;4.62;4.12;;;;;;;15.56;41.46;97254.88;1747383;81;21048;-57
2022/04/23 10:39:57;;;;;;;5.92;5.15;;;;;;;15.26;42.08;97252.69;1746896;81;21010;-57
2022/04/23 10:42:24;;;;;;;7.75;4.67;;;;;;;15.48;42.43;97264.71;1750069;81;21304;-58
2022/04/23 10:44:51;;;;;;;5.10;4.37;;;;;;;15.37;42.07;97264.83;1758662;81;21004;-57
2022/04/23 10:47:33;;;;;;;6.00;4.62;;;;;;;14.78;43.32;97258.47;1754104;81;21519;-57
2022/04/23 10:50:25;;;;;;;5.95;3.95;;;;;;;14.83;43.86;97256.95;1738142;81;21004;-57
2022/04/23 10:52:53;;;;;;;5.58;4.55;;;;;;;15.00;43.79;97253.36;1755314;81;21011;-57
2022/04/23 10:55:20;;;;;;;5.30;3.77;;;;;;;14.74;43.04;97254.81;1769873;79;21490;-57
2022/04/23 10:57:53;;;;;;;9.18;5.85;;;;;;;14.97;44.01;97259.48;1752228;81;20976;-57
2022/04/23 11:00:21;;;;;;;6.17;4.67;;;;;;;14.76;43.16;97260.73;1761661;81;21275;-57
2022/04/23 11:02:59;;;;;;;5.08;4.08;;;;;;;14.60;43.98;97257.16;1753395;81;21548;-58
2022/04/23 11:14:07;;;;;;;7.85;4.90;;;;;;;14.64;42.95;97253.23;1742107;81;21649;-57
2022/04/23 11:16:34;;;;;;;26.85;21.60;;;;;;;14.49;43.54;97249.65;1750043;81;21016;-57
2022/04/23 11:19:00;;;;;;;8.98;7.25;;;;;;;14.36;44.79;97250.85;1751155;81;20993;-58
2022/04/23 11:21:31;;;;;;;5.22;4.72;;;;;;;14.48;44.84;97248.84;1770198;81;21424;-58
2022/04/23 11:23:59;;;;;;;7.30;6.15;;;;;;;14.67;44.83;97247.92;1758344;80;21015;-58
2022/04/23 11:26:45;;;;;;;7.30;6.03;;;;;;;14.80;45.15;97248.06;1722373;81;21512;-58
2022/04/23 11:29:13;;;;;;;6.50;4.30;;;;;;;14.94;44.72;97251.38;1741891;81;20992;-57
2022/04/23 11:31:39;;;;;;;5.67;4.20;;;;;;;14.88;44.30;97245.31;1760821;81;21075;-57
2022/04/23 11:34:05;;;;;;;5.70;4.60;;;;;;;15.03;41.25;97241.22;1746786;81;21800;-57
2022/04/23 11:36:33;;;;;;;7.30;4.60;;;;;;;14.44;43.10;97234.78;1749977;81;20892;-57
2022/04/23 11:39:00;;;;;;;4.50;3.85;;;;;;;14.53;44.02;97241.87;1739638;81;21016;-57
2022/04/23 11:41:43;;;;;;;4.85;4.15;;;;;;;14.74;44.18;97242.54;1734060;81;20897;-58
2022/04/23 11:47:08;;;;;;;5.25;4.25;;;;;;;15.03;42.97;97234.41;1744027;81;21478;-58
2022/04/23 11:49:34;;;;;;;6.80;5.87;;;;;;;15.08;43.55;97237.53;1749485;81;21036;-58
2022/04/23 11:52:12;;;;;;;5.42;4.08;;;;;;;15.26;43.47;97235.52;1752463;81;20904;-57
2022/04/23 11:54:39;;;;;;;5.95;4.30;;;;;;;15.05;42.20;97241.72;1757308;81;20992;-58
2022/04/23 11:57:08;;;;;;;22.35;13.60;;;;;;;15.07;42.51;97237.30;1769537;81;21407;-57
2022/04/23 11:59:41;;;;;;;18.87;10.28;;;;;;;14.99;42.85;97233.47;1754236;81;21161;-58
2022/04/23 12:02:22;;;;;;;8.08;5.90;;;;;;;15.20;43.53;97235.69;1764312;81;20980;-58